<?xml version="1.0" encoding="UTF-8" standalone="no" ?>
<gpx xmlns="http://www.topografix.com/GPX/1/1" xmlns:xsi="http://www.w3.org/2001/XMLSchema-instance" xsi:schemaLocation="http://www.topografix.com/GPX/1/1 http://www.topografix.com/GPX/1/1/gpx.xsd" version="1.1" creator="VisuGPX - https://www.visugpx.com">
  <metadata>
    <name>13136915-Marche St Pardoux 31 mai 2021</name>
  </metadata>
  <trk>
    <name><![CDATA[13136915-Marche St Pardoux 31 mai 2021]]></name>
    <extensions>
      <line xmlns="http://www.topografix.com/GPX/gpx_style/0/2">
        <color>0000FF</color>
        <width>4</width>
      </line>
    </extensions>
    <trkseg>
      <trkpt lat="46.03446" lon="1.29883">
        <ele>378</ele>
        <time>2022-06-21T06:09:48Z</time>
      </trkpt>
      <trkpt lat="46.03441" lon="1.29937">
        <ele>377</ele>
        <time>2022-06-21T06:10:18Z</time>
      </trkpt>
      <trkpt lat="46.03436" lon="1.29983">
        <ele>376</ele>
        <time>2022-06-21T06:10:44Z</time>
      </trkpt>
      <trkpt lat="46.03415" lon="1.30002">
        <ele>376</ele>
        <time>2022-06-21T06:11:04Z</time>
      </trkpt>
      <trkpt lat="46.03404" lon="1.30033">
        <ele>375</ele>
        <time>2022-06-21T06:11:23Z</time>
      </trkpt>
      <trkpt lat="46.03378" lon="1.30019">
        <ele>373</ele>
        <time>2022-06-21T06:11:46Z</time>
      </trkpt>
      <trkpt lat="46.03351" lon="1.30041">
        <ele>371</ele>
        <time>2022-06-21T06:12:10Z</time>
      </trkpt>
      <trkpt lat="46.03319" lon="1.30092">
        <ele>369</ele>
        <time>2022-06-21T06:12:49Z</time>
      </trkpt>
      <trkpt lat="46.03302" lon="1.30142">
        <ele>372</ele>
        <time>2022-06-21T06:13:20Z</time>
      </trkpt>
      <trkpt lat="46.03284" lon="1.30191">
        <ele>373</ele>
        <time>2022-06-21T06:13:50Z</time>
      </trkpt>
      <trkpt lat="46.03257" lon="1.30204">
        <ele>372</ele>
        <time>2022-06-21T06:14:13Z</time>
      </trkpt>
      <trkpt lat="46.03231" lon="1.30196">
        <ele>375</ele>
        <time>2022-06-21T06:14:34Z</time>
      </trkpt>
      <trkpt lat="46.03217" lon="1.30188">
        <ele>377</ele>
        <time>2022-06-21T06:14:47Z</time>
      </trkpt>
      <trkpt lat="46.03214" lon="1.30143">
        <ele>375</ele>
        <time>2022-06-21T06:15:12Z</time>
      </trkpt>
      <trkpt lat="46.0321" lon="1.30111">
        <ele>373</ele>
        <time>2022-06-21T06:15:30Z</time>
      </trkpt>
      <trkpt lat="46.032" lon="1.30084">
        <ele>372</ele>
        <time>2022-06-21T06:15:47Z</time>
      </trkpt>
      <trkpt lat="46.0318" lon="1.30069">
        <ele>373</ele>
        <time>2022-06-21T06:16:05Z</time>
      </trkpt>
      <trkpt lat="46.03159" lon="1.30061">
        <ele>373</ele>
        <time>2022-06-21T06:16:22Z</time>
      </trkpt>
      <trkpt lat="46.03148" lon="1.30076">
        <ele>375</ele>
        <time>2022-06-21T06:16:34Z</time>
      </trkpt>
      <trkpt lat="46.03134" lon="1.30122">
        <ele>379</ele>
        <time>2022-06-21T06:17:02Z</time>
      </trkpt>
      <trkpt lat="46.03101" lon="1.30084">
        <ele>376</ele>
        <time>2022-06-21T06:17:36Z</time>
      </trkpt>
      <trkpt lat="46.03077" lon="1.30051">
        <ele>372</ele>
        <time>2022-06-21T06:18:03Z</time>
      </trkpt>
      <trkpt lat="46.03059" lon="1.30046">
        <ele>371</ele>
        <time>2022-06-21T06:18:17Z</time>
      </trkpt>
      <trkpt lat="46.03019" lon="1.30119">
        <ele>374</ele>
        <time>2022-06-21T06:19:09Z</time>
      </trkpt>
      <trkpt lat="46.02988" lon="1.30166">
        <ele>375</ele>
        <time>2022-06-21T06:19:45Z</time>
      </trkpt>
      <trkpt lat="46.02972" lon="1.30197">
        <ele>378</ele>
        <time>2022-06-21T06:20:07Z</time>
      </trkpt>
      <trkpt lat="46.0295" lon="1.30198">
        <ele>377</ele>
        <time>2022-06-21T06:20:24Z</time>
      </trkpt>
      <trkpt lat="46.02923" lon="1.30198">
        <ele>376</ele>
        <time>2022-06-21T06:20:46Z</time>
      </trkpt>
      <trkpt lat="46.02905" lon="1.30188">
        <ele>375</ele>
        <time>2022-06-21T06:21:01Z</time>
      </trkpt>
      <trkpt lat="46.02905" lon="1.30165">
        <ele>373</ele>
        <time>2022-06-21T06:21:14Z</time>
      </trkpt>
      <trkpt lat="46.02929" lon="1.30131">
        <ele>373</ele>
        <time>2022-06-21T06:21:41Z</time>
      </trkpt>
      <trkpt lat="46.02955" lon="1.30094">
        <ele>371</ele>
        <time>2022-06-21T06:22:10Z</time>
      </trkpt>
      <trkpt lat="46.02952" lon="1.30066">
        <ele>370</ele>
        <time>2022-06-21T06:22:26Z</time>
      </trkpt>
      <trkpt lat="46.02938" lon="1.30049">
        <ele>369</ele>
        <time>2022-06-21T06:22:41Z</time>
      </trkpt>
      <trkpt lat="46.02909" lon="1.30077">
        <ele>371</ele>
        <time>2022-06-21T06:23:09Z</time>
      </trkpt>
      <trkpt lat="46.02886" lon="1.30125">
        <ele>372</ele>
        <time>2022-06-21T06:23:41Z</time>
      </trkpt>
      <trkpt lat="46.02852" lon="1.30174">
        <ele>375</ele>
        <time>2022-06-21T06:24:20Z</time>
      </trkpt>
      <trkpt lat="46.02821" lon="1.30212">
        <ele>376</ele>
        <time>2022-06-21T06:24:52Z</time>
      </trkpt>
      <trkpt lat="46.02779" lon="1.30246">
        <ele>376</ele>
        <time>2022-06-21T06:25:31Z</time>
      </trkpt>
      <trkpt lat="46.0273" lon="1.30284">
        <ele>378</ele>
        <time>2022-06-21T06:26:15Z</time>
      </trkpt>
      <trkpt lat="46.02707" lon="1.30298">
        <ele>379</ele>
        <time>2022-06-21T06:26:35Z</time>
      </trkpt>
      <trkpt lat="46.02657" lon="1.30282">
        <ele>375</ele>
        <time>2022-06-21T06:27:16Z</time>
      </trkpt>
      <trkpt lat="46.02617" lon="1.30272">
        <ele>372</ele>
        <time>2022-06-21T06:27:49Z</time>
      </trkpt>
      <trkpt lat="46.026" lon="1.30268">
        <ele>371</ele>
        <time>2022-06-21T06:28:03Z</time>
      </trkpt>
      <trkpt lat="46.02597" lon="1.30249">
        <ele>370</ele>
        <time>2022-06-21T06:28:13Z</time>
      </trkpt>
      <trkpt lat="46.02601" lon="1.30228">
        <ele>371</ele>
        <time>2022-06-21T06:28:25Z</time>
      </trkpt>
      <trkpt lat="46.02599" lon="1.3019">
        <ele>372</ele>
        <time>2022-06-21T06:28:47Z</time>
      </trkpt>
      <trkpt lat="46.02577" lon="1.30197">
        <ele>372</ele>
        <time>2022-06-21T06:29:05Z</time>
      </trkpt>
      <trkpt lat="46.02558" lon="1.30197">
        <ele>373</ele>
        <time>2022-06-21T06:29:20Z</time>
      </trkpt>
      <trkpt lat="46.02555" lon="1.30183">
        <ele>374</ele>
        <time>2022-06-21T06:29:28Z</time>
      </trkpt>
      <trkpt lat="46.02577" lon="1.30144">
        <ele>377</ele>
        <time>2022-06-21T06:29:56Z</time>
      </trkpt>
      <trkpt lat="46.02597" lon="1.30105">
        <ele>380</ele>
        <time>2022-06-21T06:30:23Z</time>
      </trkpt>
      <trkpt lat="46.02617" lon="1.30065">
        <ele>381</ele>
        <time>2022-06-21T06:30:50Z</time>
      </trkpt>
      <trkpt lat="46.02633" lon="1.30032">
        <ele>382</ele>
        <time>2022-06-21T06:31:13Z</time>
      </trkpt>
      <trkpt lat="46.02611" lon="1.30009">
        <ele>385</ele>
        <time>2022-06-21T06:31:35Z</time>
      </trkpt>
      <trkpt lat="46.02586" lon="1.29994">
        <ele>386</ele>
        <time>2022-06-21T06:31:56Z</time>
      </trkpt>
      <trkpt lat="46.02541" lon="1.30008">
        <ele>384</ele>
        <time>2022-06-21T06:32:33Z</time>
      </trkpt>
      <trkpt lat="46.02529" lon="1.29982">
        <ele>382</ele>
        <time>2022-06-21T06:32:50Z</time>
      </trkpt>
      <trkpt lat="46.02512" lon="1.29986">
        <ele>382</ele>
        <time>2022-06-21T06:33:04Z</time>
      </trkpt>
      <trkpt lat="46.025" lon="1.29995">
        <ele>382</ele>
        <time>2022-06-21T06:33:15Z</time>
      </trkpt>
      <trkpt lat="46.02472" lon="1.2999">
        <ele>378</ele>
        <time>2022-06-21T06:33:38Z</time>
      </trkpt>
      <trkpt lat="46.02455" lon="1.30017">
        <ele>376</ele>
        <time>2022-06-21T06:33:58Z</time>
      </trkpt>
      <trkpt lat="46.02434" lon="1.30044">
        <ele>374</ele>
        <time>2022-06-21T06:34:20Z</time>
      </trkpt>
      <trkpt lat="46.02413" lon="1.30073">
        <ele>372</ele>
        <time>2022-06-21T06:34:44Z</time>
      </trkpt>
      <trkpt lat="46.02398" lon="1.30075">
        <ele>372</ele>
        <time>2022-06-21T06:34:56Z</time>
      </trkpt>
      <trkpt lat="46.02379" lon="1.30049">
        <ele>372</ele>
        <time>2022-06-21T06:35:17Z</time>
      </trkpt>
      <trkpt lat="46.02349" lon="1.30035">
        <ele>372</ele>
        <time>2022-06-21T06:35:42Z</time>
      </trkpt>
      <trkpt lat="46.02326" lon="1.30029">
        <ele>373</ele>
        <time>2022-06-21T06:36:01Z</time>
      </trkpt>
      <trkpt lat="46.02302" lon="1.30017">
        <ele>375</ele>
        <time>2022-06-21T06:36:21Z</time>
      </trkpt>
      <trkpt lat="46.02299" lon="1.29982">
        <ele>376</ele>
        <time>2022-06-21T06:36:41Z</time>
      </trkpt>
      <trkpt lat="46.02295" lon="1.29935">
        <ele>376</ele>
        <time>2022-06-21T06:37:07Z</time>
      </trkpt>
      <trkpt lat="46.02307" lon="1.29886">
        <ele>376</ele>
        <time>2022-06-21T06:37:36Z</time>
      </trkpt>
      <trkpt lat="46.02319" lon="1.29836">
        <ele>376</ele>
        <time>2022-06-21T06:38:05Z</time>
      </trkpt>
      <trkpt lat="46.02325" lon="1.29786">
        <ele>376</ele>
        <time>2022-06-21T06:38:34Z</time>
      </trkpt>
      <trkpt lat="46.02331" lon="1.29735">
        <ele>375</ele>
        <time>2022-06-21T06:39:02Z</time>
      </trkpt>
      <trkpt lat="46.0233" lon="1.29699">
        <ele>375</ele>
        <time>2022-06-21T06:39:22Z</time>
      </trkpt>
      <trkpt lat="46.0232" lon="1.29664">
        <ele>374</ele>
        <time>2022-06-21T06:39:43Z</time>
      </trkpt>
      <trkpt lat="46.02313" lon="1.29636">
        <ele>372</ele>
        <time>2022-06-21T06:40:00Z</time>
      </trkpt>
      <trkpt lat="46.02309" lon="1.29606">
        <ele>370</ele>
        <time>2022-06-21T06:40:17Z</time>
      </trkpt>
      <trkpt lat="46.02311" lon="1.29577">
        <ele>368</ele>
        <time>2022-06-21T06:40:33Z</time>
      </trkpt>
      <trkpt lat="46.02312" lon="1.29542">
        <ele>366</ele>
        <time>2022-06-21T06:40:53Z</time>
      </trkpt>
      <trkpt lat="46.02334" lon="1.29481">
        <ele>365</ele>
        <time>2022-06-21T06:41:31Z</time>
      </trkpt>
      <trkpt lat="46.02369" lon="1.29425">
        <ele>368</ele>
        <time>2022-06-21T06:42:13Z</time>
      </trkpt>
      <trkpt lat="46.02403" lon="1.2937">
        <ele>374</ele>
        <time>2022-06-21T06:42:54Z</time>
      </trkpt>
      <trkpt lat="46.02476" lon="1.29361">
        <ele>373</ele>
        <time>2022-06-21T06:43:52Z</time>
      </trkpt>
      <trkpt lat="46.02549" lon="1.29347">
        <ele>373</ele>
        <time>2022-06-21T06:44:51Z</time>
      </trkpt>
      <trkpt lat="46.026" lon="1.29318">
        <ele>374</ele>
        <time>2022-06-21T06:45:35Z</time>
      </trkpt>
      <trkpt lat="46.026" lon="1.29296">
        <ele>376</ele>
        <time>2022-06-21T06:45:47Z</time>
      </trkpt>
      <trkpt lat="46.02593" lon="1.29276">
        <ele>379</ele>
        <time>2022-06-21T06:46:00Z</time>
      </trkpt>
      <trkpt lat="46.02604" lon="1.29243">
        <ele>380</ele>
        <time>2022-06-21T06:46:20Z</time>
      </trkpt>
      <trkpt lat="46.02602" lon="1.29198">
        <ele>380</ele>
        <time>2022-06-21T06:46:45Z</time>
      </trkpt>
      <trkpt lat="46.02585" lon="1.29152">
        <ele>382</ele>
        <time>2022-06-21T06:47:14Z</time>
      </trkpt>
      <trkpt lat="46.02581" lon="1.29116">
        <ele>381</ele>
        <time>2022-06-21T06:47:34Z</time>
      </trkpt>
      <trkpt lat="46.02578" lon="1.2908">
        <ele>380</ele>
        <time>2022-06-21T06:47:55Z</time>
      </trkpt>
      <trkpt lat="46.02572" lon="1.29045">
        <ele>377</ele>
        <time>2022-06-21T06:48:15Z</time>
      </trkpt>
      <trkpt lat="46.02561" lon="1.29011">
        <ele>375</ele>
        <time>2022-06-21T06:48:36Z</time>
      </trkpt>
      <trkpt lat="46.02564" lon="1.2898">
        <ele>372</ele>
        <time>2022-06-21T06:48:53Z</time>
      </trkpt>
      <trkpt lat="46.02587" lon="1.28962">
        <ele>368</ele>
        <time>2022-06-21T06:49:14Z</time>
      </trkpt>
      <trkpt lat="46.02581" lon="1.28922">
        <ele>366</ele>
        <time>2022-06-21T06:49:37Z</time>
      </trkpt>
      <trkpt lat="46.02593" lon="1.28889">
        <ele>368</ele>
        <time>2022-06-21T06:49:57Z</time>
      </trkpt>
      <trkpt lat="46.02614" lon="1.28859">
        <ele>369</ele>
        <time>2022-06-21T06:50:21Z</time>
      </trkpt>
      <trkpt lat="46.02642" lon="1.28835">
        <ele>370</ele>
        <time>2022-06-21T06:50:47Z</time>
      </trkpt>
      <trkpt lat="46.02682" lon="1.2882">
        <ele>370</ele>
        <time>2022-06-21T06:51:20Z</time>
      </trkpt>
      <trkpt lat="46.02716" lon="1.28796">
        <ele>370</ele>
        <time>2022-06-21T06:51:51Z</time>
      </trkpt>
      <trkpt lat="46.02745" lon="1.28743">
        <ele>374</ele>
        <time>2022-06-21T06:52:28Z</time>
      </trkpt>
      <trkpt lat="46.02768" lon="1.28695">
        <ele>374</ele>
        <time>2022-06-21T06:53:00Z</time>
      </trkpt>
      <trkpt lat="46.02768" lon="1.28673">
        <ele>375</ele>
        <time>2022-06-21T06:53:13Z</time>
      </trkpt>
      <trkpt lat="46.02777" lon="1.28653">
        <ele>375</ele>
        <time>2022-06-21T06:53:26Z</time>
      </trkpt>
      <trkpt lat="46.0279" lon="1.28638">
        <ele>374</ele>
        <time>2022-06-21T06:53:39Z</time>
      </trkpt>
      <trkpt lat="46.02805" lon="1.28637">
        <ele>373</ele>
        <time>2022-06-21T06:53:51Z</time>
      </trkpt>
      <trkpt lat="46.02858" lon="1.28659">
        <ele>368</ele>
        <time>2022-06-21T06:54:35Z</time>
      </trkpt>
      <trkpt lat="46.02917" lon="1.28653">
        <ele>370</ele>
        <time>2022-06-21T06:55:23Z</time>
      </trkpt>
      <trkpt lat="46.02973" lon="1.28642">
        <ele>367</ele>
        <time>2022-06-21T06:56:08Z</time>
      </trkpt>
      <trkpt lat="46.02989" lon="1.28576">
        <ele>369</ele>
        <time>2022-06-21T06:56:47Z</time>
      </trkpt>
      <trkpt lat="46.03053" lon="1.2856">
        <ele>365</ele>
        <time>2022-06-21T06:57:39Z</time>
      </trkpt>
      <trkpt lat="46.03081" lon="1.28532">
        <ele>364</ele>
        <time>2022-06-21T06:58:06Z</time>
      </trkpt>
      <trkpt lat="46.03095" lon="1.28501">
        <ele>365</ele>
        <time>2022-06-21T06:58:27Z</time>
      </trkpt>
      <trkpt lat="46.03105" lon="1.28483">
        <ele>365</ele>
        <time>2022-06-21T06:58:40Z</time>
      </trkpt>
      <trkpt lat="46.03117" lon="1.28457">
        <ele>365</ele>
        <time>2022-06-21T06:58:57Z</time>
      </trkpt>
      <trkpt lat="46.03136" lon="1.28424">
        <ele>365</ele>
        <time>2022-06-21T06:59:21Z</time>
      </trkpt>
      <trkpt lat="46.03136" lon="1.28398">
        <ele>366</ele>
        <time>2022-06-21T06:59:35Z</time>
      </trkpt>
      <trkpt lat="46.0314" lon="1.28346">
        <ele>367</ele>
        <time>2022-06-21T07:00:04Z</time>
      </trkpt>
      <trkpt lat="46.03132" lon="1.28298">
        <ele>369</ele>
        <time>2022-06-21T07:00:32Z</time>
      </trkpt>
      <trkpt lat="46.03124" lon="1.28268">
        <ele>370</ele>
        <time>2022-06-21T07:00:50Z</time>
      </trkpt>
      <trkpt lat="46.03168" lon="1.28221">
        <ele>365</ele>
        <time>2022-06-21T07:01:34Z</time>
      </trkpt>
      <trkpt lat="46.03216" lon="1.28169">
        <ele>367</ele>
        <time>2022-06-21T07:02:22Z</time>
      </trkpt>
      <trkpt lat="46.0328" lon="1.28104">
        <ele>370</ele>
        <time>2022-06-21T07:03:24Z</time>
      </trkpt>
      <trkpt lat="46.033" lon="1.28064">
        <ele>370</ele>
        <time>2022-06-21T07:03:52Z</time>
      </trkpt>
      <trkpt lat="46.03297" lon="1.28012">
        <ele>371</ele>
        <time>2022-06-21T07:04:21Z</time>
      </trkpt>
      <trkpt lat="46.03289" lon="1.27979">
        <ele>371</ele>
        <time>2022-06-21T07:04:40Z</time>
      </trkpt>
      <trkpt lat="46.03279" lon="1.27934">
        <ele>371</ele>
        <time>2022-06-21T07:05:06Z</time>
      </trkpt>
      <trkpt lat="46.03276" lon="1.27891">
        <ele>371</ele>
        <time>2022-06-21T07:05:30Z</time>
      </trkpt>
      <trkpt lat="46.03288" lon="1.27851">
        <ele>370</ele>
        <time>2022-06-21T07:05:55Z</time>
      </trkpt>
      <trkpt lat="46.03294" lon="1.27826">
        <ele>369</ele>
        <time>2022-06-21T07:06:09Z</time>
      </trkpt>
      <trkpt lat="46.03284" lon="1.27806">
        <ele>370</ele>
        <time>2022-06-21T07:06:23Z</time>
      </trkpt>
      <trkpt lat="46.03238" lon="1.27789">
        <ele>374</ele>
        <time>2022-06-21T07:07:01Z</time>
      </trkpt>
      <trkpt lat="46.03192" lon="1.27781">
        <ele>372</ele>
        <time>2022-06-21T07:07:38Z</time>
      </trkpt>
      <trkpt lat="46.03145" lon="1.27755">
        <ele>369</ele>
        <time>2022-06-21T07:08:18Z</time>
      </trkpt>
      <trkpt lat="46.03106" lon="1.27753">
        <ele>369</ele>
        <time>2022-06-21T07:08:50Z</time>
      </trkpt>
      <trkpt lat="46.03057" lon="1.27747">
        <ele>372</ele>
        <time>2022-06-21T07:09:29Z</time>
      </trkpt>
      <trkpt lat="46.0304" lon="1.27737">
        <ele>374</ele>
        <time>2022-06-21T07:09:44Z</time>
      </trkpt>
      <trkpt lat="46.03032" lon="1.27706">
        <ele>374</ele>
        <time>2022-06-21T07:10:02Z</time>
      </trkpt>
      <trkpt lat="46.03028" lon="1.27672">
        <ele>373</ele>
        <time>2022-06-21T07:10:21Z</time>
      </trkpt>
      <trkpt lat="46.03031" lon="1.27625">
        <ele>372</ele>
        <time>2022-06-21T07:10:48Z</time>
      </trkpt>
      <trkpt lat="46.03042" lon="1.27582">
        <ele>369</ele>
        <time>2022-06-21T07:11:13Z</time>
      </trkpt>
      <trkpt lat="46.03077" lon="1.27549">
        <ele>366</ele>
        <time>2022-06-21T07:11:47Z</time>
      </trkpt>
      <trkpt lat="46.03105" lon="1.27543">
        <ele>365</ele>
        <time>2022-06-21T07:12:09Z</time>
      </trkpt>
      <trkpt lat="46.03142" lon="1.2753">
        <ele>364</ele>
        <time>2022-06-21T07:12:40Z</time>
      </trkpt>
      <trkpt lat="46.03157" lon="1.2749">
        <ele>365</ele>
        <time>2022-06-21T07:13:05Z</time>
      </trkpt>
      <trkpt lat="46.03172" lon="1.27438">
        <ele>367</ele>
        <time>2022-06-21T07:13:36Z</time>
      </trkpt>
      <trkpt lat="46.03177" lon="1.27408">
        <ele>368</ele>
        <time>2022-06-21T07:13:53Z</time>
      </trkpt>
      <trkpt lat="46.03172" lon="1.27348">
        <ele>371</ele>
        <time>2022-06-21T07:14:27Z</time>
      </trkpt>
      <trkpt lat="46.03162" lon="1.27301">
        <ele>374</ele>
        <time>2022-06-21T07:14:54Z</time>
      </trkpt>
      <trkpt lat="46.03138" lon="1.27249">
        <ele>379</ele>
        <time>2022-06-21T07:15:29Z</time>
      </trkpt>
      <trkpt lat="46.03124" lon="1.27203">
        <ele>379</ele>
        <time>2022-06-21T07:15:57Z</time>
      </trkpt>
      <trkpt lat="46.03108" lon="1.27161">
        <ele>380</ele>
        <time>2022-06-21T07:16:24Z</time>
      </trkpt>
      <trkpt lat="46.03086" lon="1.27133">
        <ele>381</ele>
        <time>2022-06-21T07:16:47Z</time>
      </trkpt>
      <trkpt lat="46.03084" lon="1.27104">
        <ele>380</ele>
        <time>2022-06-21T07:17:03Z</time>
      </trkpt>
      <trkpt lat="46.03084" lon="1.27075">
        <ele>379</ele>
        <time>2022-06-21T07:17:19Z</time>
      </trkpt>
      <trkpt lat="46.03075" lon="1.2705">
        <ele>380</ele>
        <time>2022-06-21T07:17:35Z</time>
      </trkpt>
      <trkpt lat="46.03064" lon="1.27022">
        <ele>380</ele>
        <time>2022-06-21T07:17:53Z</time>
      </trkpt>
      <trkpt lat="46.03045" lon="1.26995">
        <ele>380</ele>
        <time>2022-06-21T07:18:14Z</time>
      </trkpt>
      <trkpt lat="46.03042" lon="1.26963">
        <ele>381</ele>
        <time>2022-06-21T07:18:32Z</time>
      </trkpt>
      <trkpt lat="46.03051" lon="1.26898">
        <ele>383</ele>
        <time>2022-06-21T07:19:09Z</time>
      </trkpt>
      <trkpt lat="46.03099" lon="1.26902">
        <ele>385</ele>
        <time>2022-06-21T07:19:48Z</time>
      </trkpt>
      <trkpt lat="46.03154" lon="1.26887">
        <ele>389</ele>
        <time>2022-06-21T07:20:32Z</time>
      </trkpt>
      <trkpt lat="46.03179" lon="1.26899">
        <ele>388</ele>
        <time>2022-06-21T07:20:54Z</time>
      </trkpt>
      <trkpt lat="46.03259" lon="1.26851">
        <ele>385</ele>
        <time>2022-06-21T07:22:03Z</time>
      </trkpt>
      <trkpt lat="46.03312" lon="1.26834">
        <ele>379</ele>
        <time>2022-06-21T07:22:46Z</time>
      </trkpt>
      <trkpt lat="46.03352" lon="1.26807">
        <ele>374</ele>
        <time>2022-06-21T07:23:22Z</time>
      </trkpt>
      <trkpt lat="46.03372" lon="1.26739">
        <ele>373</ele>
        <time>2022-06-21T07:24:03Z</time>
      </trkpt>
      <trkpt lat="46.03384" lon="1.26647">
        <ele>375</ele>
        <time>2022-06-21T07:24:55Z</time>
      </trkpt>
      <trkpt lat="46.03419" lon="1.26603">
        <ele>374</ele>
        <time>2022-06-21T07:25:32Z</time>
      </trkpt>
      <trkpt lat="46.03445" lon="1.26575">
        <ele>376</ele>
        <time>2022-06-21T07:25:58Z</time>
      </trkpt>
      <trkpt lat="46.03464" lon="1.26579">
        <ele>375</ele>
        <time>2022-06-21T07:26:13Z</time>
      </trkpt>
      <trkpt lat="46.0348" lon="1.26597">
        <ele>373</ele>
        <time>2022-06-21T07:26:30Z</time>
      </trkpt>
      <trkpt lat="46.03516" lon="1.26628">
        <ele>373</ele>
        <time>2022-06-21T07:27:03Z</time>
      </trkpt>
      <trkpt lat="46.03535" lon="1.26665">
        <ele>374</ele>
        <time>2022-06-21T07:27:29Z</time>
      </trkpt>
      <trkpt lat="46.03531" lon="1.26706">
        <ele>372</ele>
        <time>2022-06-21T07:27:52Z</time>
      </trkpt>
      <trkpt lat="46.03515" lon="1.26756">
        <ele>368</ele>
        <time>2022-06-21T07:28:22Z</time>
      </trkpt>
      <trkpt lat="46.03496" lon="1.26809">
        <ele>367</ele>
        <time>2022-06-21T07:28:56Z</time>
      </trkpt>
      <trkpt lat="46.03481" lon="1.26837">
        <ele>366</ele>
        <time>2022-06-21T07:29:15Z</time>
      </trkpt>
      <trkpt lat="46.03487" lon="1.26869">
        <ele>365</ele>
        <time>2022-06-21T07:29:34Z</time>
      </trkpt>
      <trkpt lat="46.03548" lon="1.26849">
        <ele>373</ele>
        <time>2022-06-21T07:30:24Z</time>
      </trkpt>
      <trkpt lat="46.0358" lon="1.26849">
        <ele>377</ele>
        <time>2022-06-21T07:30:49Z</time>
      </trkpt>
      <trkpt lat="46.03602" lon="1.26859">
        <ele>380</ele>
        <time>2022-06-21T07:31:08Z</time>
      </trkpt>
      <trkpt lat="46.03609" lon="1.26894">
        <ele>381</ele>
        <time>2022-06-21T07:31:28Z</time>
      </trkpt>
      <trkpt lat="46.03628" lon="1.2693">
        <ele>381</ele>
        <time>2022-06-21T07:31:53Z</time>
      </trkpt>
      <trkpt lat="46.03659" lon="1.26952">
        <ele>383</ele>
        <time>2022-06-21T07:32:21Z</time>
      </trkpt>
      <trkpt lat="46.0374" lon="1.26974">
        <ele>385</ele>
        <time>2022-06-21T07:33:27Z</time>
      </trkpt>
      <trkpt lat="46.03811" lon="1.27006">
        <ele>385</ele>
        <time>2022-06-21T07:34:27Z</time>
      </trkpt>
      <trkpt lat="46.03892" lon="1.27055">
        <ele>372</ele>
        <time>2022-06-21T07:35:37Z</time>
      </trkpt>
      <trkpt lat="46.0393" lon="1.26983">
        <ele>377</ele>
        <time>2022-06-21T07:36:27Z</time>
      </trkpt>
      <trkpt lat="46.03959" lon="1.26969">
        <ele>378</ele>
        <time>2022-06-21T07:36:52Z</time>
      </trkpt>
      <trkpt lat="46.04013" lon="1.26981">
        <ele>375</ele>
        <time>2022-06-21T07:37:35Z</time>
      </trkpt>
      <trkpt lat="46.04084" lon="1.26977">
        <ele>374</ele>
        <time>2022-06-21T07:38:32Z</time>
      </trkpt>
      <trkpt lat="46.04123" lon="1.26967">
        <ele>375</ele>
        <time>2022-06-21T07:39:04Z</time>
      </trkpt>
      <trkpt lat="46.04149" lon="1.26991">
        <ele>371</ele>
        <time>2022-06-21T07:39:29Z</time>
      </trkpt>
      <trkpt lat="46.04178" lon="1.27036">
        <ele>371</ele>
        <time>2022-06-21T07:40:03Z</time>
      </trkpt>
      <trkpt lat="46.04186" lon="1.27065">
        <ele>372</ele>
        <time>2022-06-21T07:40:20Z</time>
      </trkpt>
      <trkpt lat="46.04178" lon="1.27108">
        <ele>371</ele>
        <time>2022-06-21T07:40:45Z</time>
      </trkpt>
      <trkpt lat="46.0418" lon="1.27165">
        <ele>369</ele>
        <time>2022-06-21T07:41:17Z</time>
      </trkpt>
      <trkpt lat="46.04199" lon="1.27254">
        <ele>368</ele>
        <time>2022-06-21T07:42:08Z</time>
      </trkpt>
      <trkpt lat="46.04205" lon="1.27299">
        <ele>367</ele>
        <time>2022-06-21T07:42:34Z</time>
      </trkpt>
      <trkpt lat="46.04205" lon="1.27337">
        <ele>366</ele>
        <time>2022-06-21T07:42:55Z</time>
      </trkpt>
      <trkpt lat="46.04229" lon="1.27365">
        <ele>366</ele>
        <time>2022-06-21T07:43:20Z</time>
      </trkpt>
      <trkpt lat="46.04297" lon="1.27374">
        <ele>368</ele>
        <time>2022-06-21T07:44:14Z</time>
      </trkpt>
      <trkpt lat="46.04334" lon="1.27384">
        <ele>367</ele>
        <time>2022-06-21T07:44:45Z</time>
      </trkpt>
      <trkpt lat="46.04405" lon="1.27326">
        <ele>368</ele>
        <time>2022-06-21T07:45:50Z</time>
      </trkpt>
      <trkpt lat="46.04438" lon="1.2731">
        <ele>367</ele>
        <time>2022-06-21T07:46:18Z</time>
      </trkpt>
      <trkpt lat="46.04454" lon="1.27286">
        <ele>367</ele>
        <time>2022-06-21T07:46:36Z</time>
      </trkpt>
      <trkpt lat="46.04454" lon="1.27253">
        <ele>369</ele>
        <time>2022-06-21T07:46:55Z</time>
      </trkpt>
      <trkpt lat="46.04434" lon="1.27223">
        <ele>370</ele>
        <time>2022-06-21T07:47:18Z</time>
      </trkpt>
      <trkpt lat="46.04406" lon="1.2719">
        <ele>371</ele>
        <time>2022-06-21T07:47:47Z</time>
      </trkpt>
      <trkpt lat="46.0439" lon="1.27158">
        <ele>373</ele>
        <time>2022-06-21T07:48:09Z</time>
      </trkpt>
      <trkpt lat="46.04381" lon="1.27102">
        <ele>374</ele>
        <time>2022-06-21T07:48:41Z</time>
      </trkpt>
      <trkpt lat="46.04365" lon="1.2704">
        <ele>378</ele>
        <time>2022-06-21T07:49:17Z</time>
      </trkpt>
      <trkpt lat="46.04366" lon="1.26999">
        <ele>379</ele>
        <time>2022-06-21T07:49:40Z</time>
      </trkpt>
      <trkpt lat="46.04397" lon="1.26976">
        <ele>379</ele>
        <time>2022-06-21T07:50:08Z</time>
      </trkpt>
      <trkpt lat="46.04437" lon="1.26984">
        <ele>378</ele>
        <time>2022-06-21T07:50:40Z</time>
      </trkpt>
      <trkpt lat="46.04485" lon="1.26956">
        <ele>381</ele>
        <time>2022-06-21T07:51:22Z</time>
      </trkpt>
      <trkpt lat="46.0456" lon="1.26984">
        <ele>380</ele>
        <time>2022-06-21T07:52:24Z</time>
      </trkpt>
      <trkpt lat="46.04624" lon="1.27022">
        <ele>377</ele>
        <time>2022-06-21T07:53:19Z</time>
      </trkpt>
      <trkpt lat="46.04689" lon="1.27061">
        <ele>372</ele>
        <time>2022-06-21T07:54:16Z</time>
      </trkpt>
      <trkpt lat="46.04716" lon="1.27064">
        <ele>371</ele>
        <time>2022-06-21T07:54:37Z</time>
      </trkpt>
      <trkpt lat="46.04742" lon="1.27052">
        <ele>372</ele>
        <time>2022-06-21T07:54:59Z</time>
      </trkpt>
      <trkpt lat="46.04759" lon="1.27035">
        <ele>374</ele>
        <time>2022-06-21T07:55:16Z</time>
      </trkpt>
      <trkpt lat="46.0478" lon="1.27003">
        <ele>376</ele>
        <time>2022-06-21T07:55:40Z</time>
      </trkpt>
      <trkpt lat="46.04822" lon="1.26943">
        <ele>377</ele>
        <time>2022-06-21T07:56:28Z</time>
      </trkpt>
      <trkpt lat="46.04884" lon="1.26885">
        <ele>374</ele>
        <time>2022-06-21T07:57:27Z</time>
      </trkpt>
      <trkpt lat="46.04919" lon="1.2684">
        <ele>374</ele>
        <time>2022-06-21T07:58:04Z</time>
      </trkpt>
      <trkpt lat="46.04936" lon="1.26807">
        <ele>375</ele>
        <time>2022-06-21T07:58:27Z</time>
      </trkpt>
      <trkpt lat="46.04965" lon="1.26743">
        <ele>374</ele>
        <time>2022-06-21T07:59:10Z</time>
      </trkpt>
      <trkpt lat="46.04999" lon="1.26724">
        <ele>367</ele>
        <time>2022-06-21T07:59:39Z</time>
      </trkpt>
      <trkpt lat="46.04994" lon="1.26661">
        <ele>369</ele>
        <time>2022-06-21T08:00:14Z</time>
      </trkpt>
      <trkpt lat="46.05" lon="1.26635">
        <ele>370</ele>
        <time>2022-06-21T08:00:29Z</time>
      </trkpt>
      <trkpt lat="46.05044" lon="1.2666">
        <ele>369</ele>
        <time>2022-06-21T08:01:07Z</time>
      </trkpt>
      <trkpt lat="46.05081" lon="1.26641">
        <ele>371</ele>
        <time>2022-06-21T08:01:39Z</time>
      </trkpt>
      <trkpt lat="46.05108" lon="1.26621">
        <ele>371</ele>
        <time>2022-06-21T08:02:03Z</time>
      </trkpt>
      <trkpt lat="46.0513" lon="1.26619">
        <ele>372</ele>
        <time>2022-06-21T08:02:21Z</time>
      </trkpt>
      <trkpt lat="46.05156" lon="1.26631">
        <ele>372</ele>
        <time>2022-06-21T08:02:42Z</time>
      </trkpt>
      <trkpt lat="46.05205" lon="1.26639">
        <ele>370</ele>
        <time>2022-06-21T08:03:22Z</time>
      </trkpt>
      <trkpt lat="46.05275" lon="1.2667">
        <ele>364</ele>
        <time>2022-06-21T08:04:21Z</time>
      </trkpt>
      <trkpt lat="46.0529" lon="1.26689">
        <ele>362</ele>
        <time>2022-06-21T08:04:37Z</time>
      </trkpt>
      <trkpt lat="46.05294" lon="1.26715">
        <ele>361</ele>
        <time>2022-06-21T08:04:51Z</time>
      </trkpt>
      <trkpt lat="46.05338" lon="1.26789">
        <ele>360</ele>
        <time>2022-06-21T08:05:46Z</time>
      </trkpt>
      <trkpt lat="46.05373" lon="1.26859">
        <ele>361</ele>
        <time>2022-06-21T08:06:33Z</time>
      </trkpt>
      <trkpt lat="46.05404" lon="1.26921">
        <ele>365</ele>
        <time>2022-06-21T08:07:16Z</time>
      </trkpt>
      <trkpt lat="46.0536" lon="1.26965">
        <ele>368</ele>
        <time>2022-06-21T08:07:59Z</time>
      </trkpt>
      <trkpt lat="46.05324" lon="1.26955">
        <ele>367</ele>
        <time>2022-06-21T08:08:28Z</time>
      </trkpt>
      <trkpt lat="46.05269" lon="1.26957">
        <ele>369</ele>
        <time>2022-06-21T08:09:12Z</time>
      </trkpt>
      <trkpt lat="46.05215" lon="1.26933">
        <ele>367</ele>
        <time>2022-06-21T08:09:57Z</time>
      </trkpt>
      <trkpt lat="46.05187" lon="1.26932">
        <ele>367</ele>
        <time>2022-06-21T08:10:20Z</time>
      </trkpt>
      <trkpt lat="46.05154" lon="1.2696">
        <ele>369</ele>
        <time>2022-06-21T08:10:51Z</time>
      </trkpt>
      <trkpt lat="46.0512" lon="1.2699">
        <ele>370</ele>
        <time>2022-06-21T08:11:22Z</time>
      </trkpt>
      <trkpt lat="46.05095" lon="1.27028">
        <ele>370</ele>
        <time>2022-06-21T08:11:52Z</time>
      </trkpt>
      <trkpt lat="46.05083" lon="1.27049">
        <ele>370</ele>
        <time>2022-06-21T08:12:07Z</time>
      </trkpt>
      <trkpt lat="46.05064" lon="1.27061">
        <ele>369</ele>
        <time>2022-06-21T08:12:23Z</time>
      </trkpt>
      <trkpt lat="46.0501" lon="1.27064">
        <ele>365</ele>
        <time>2022-06-21T08:13:07Z</time>
      </trkpt>
      <trkpt lat="46.04971" lon="1.27088">
        <ele>365</ele>
        <time>2022-06-21T08:13:40Z</time>
      </trkpt>
      <trkpt lat="46.04935" lon="1.27096">
        <ele>365</ele>
        <time>2022-06-21T08:14:10Z</time>
      </trkpt>
      <trkpt lat="46.04899" lon="1.27128">
        <ele>365</ele>
        <time>2022-06-21T08:14:44Z</time>
      </trkpt>
      <trkpt lat="46.04873" lon="1.27173">
        <ele>365</ele>
        <time>2022-06-21T08:15:16Z</time>
      </trkpt>
      <trkpt lat="46.04863" lon="1.27226">
        <ele>366</ele>
        <time>2022-06-21T08:15:47Z</time>
      </trkpt>
      <trkpt lat="46.04893" lon="1.2729">
        <ele>367</ele>
        <time>2022-06-21T08:16:30Z</time>
      </trkpt>
      <trkpt lat="46.04933" lon="1.27346">
        <ele>368</ele>
        <time>2022-06-21T08:17:14Z</time>
      </trkpt>
      <trkpt lat="46.04962" lon="1.27426">
        <ele>370</ele>
        <time>2022-06-21T08:18:04Z</time>
      </trkpt>
      <trkpt lat="46.05007" lon="1.27501">
        <ele>369</ele>
        <time>2022-06-21T08:18:59Z</time>
      </trkpt>
      <trkpt lat="46.05032" lon="1.27529">
        <ele>369</ele>
        <time>2022-06-21T08:19:25Z</time>
      </trkpt>
      <trkpt lat="46.05015" lon="1.2758">
        <ele>364</ele>
        <time>2022-06-21T08:19:56Z</time>
      </trkpt>
      <trkpt lat="46.04997" lon="1.27619">
        <ele>363</ele>
        <time>2022-06-21T08:20:22Z</time>
      </trkpt>
      <trkpt lat="46.04983" lon="1.27682">
        <ele>364</ele>
        <time>2022-06-21T08:20:59Z</time>
      </trkpt>
      <trkpt lat="46.04962" lon="1.27732">
        <ele>365</ele>
        <time>2022-06-21T08:21:31Z</time>
      </trkpt>
      <trkpt lat="46.04924" lon="1.2775">
        <ele>363</ele>
        <time>2022-06-21T08:22:03Z</time>
      </trkpt>
      <trkpt lat="46.04872" lon="1.27736">
        <ele>362</ele>
        <time>2022-06-21T08:22:46Z</time>
      </trkpt>
      <trkpt lat="46.04829" lon="1.27744">
        <ele>362</ele>
        <time>2022-06-21T08:23:21Z</time>
      </trkpt>
      <trkpt lat="46.0479" lon="1.27762">
        <ele>362</ele>
        <time>2022-06-21T08:23:53Z</time>
      </trkpt>
      <trkpt lat="46.04752" lon="1.27787">
        <ele>363</ele>
        <time>2022-06-21T08:24:27Z</time>
      </trkpt>
      <trkpt lat="46.04724" lon="1.2782">
        <ele>363</ele>
        <time>2022-06-21T08:24:56Z</time>
      </trkpt>
      <trkpt lat="46.04717" lon="1.2787">
        <ele>363</ele>
        <time>2022-06-21T08:25:24Z</time>
      </trkpt>
      <trkpt lat="46.04699" lon="1.27886">
        <ele>363</ele>
        <time>2022-06-21T08:25:41Z</time>
      </trkpt>
      <trkpt lat="46.047" lon="1.27913">
        <ele>363</ele>
        <time>2022-06-21T08:25:56Z</time>
      </trkpt>
      <trkpt lat="46.04756" lon="1.27948">
        <ele>364</ele>
        <time>2022-06-21T08:26:45Z</time>
      </trkpt>
      <trkpt lat="46.04812" lon="1.27987">
        <ele>365</ele>
        <time>2022-06-21T08:27:35Z</time>
      </trkpt>
      <trkpt lat="46.04861" lon="1.27994">
        <ele>367</ele>
        <time>2022-06-21T08:28:14Z</time>
      </trkpt>
      <trkpt lat="46.04891" lon="1.28028">
        <ele>368</ele>
        <time>2022-06-21T08:28:45Z</time>
      </trkpt>
      <trkpt lat="46.04913" lon="1.2807">
        <ele>368</ele>
        <time>2022-06-21T08:29:14Z</time>
      </trkpt>
      <trkpt lat="46.04931" lon="1.28084">
        <ele>370</ele>
        <time>2022-06-21T08:29:30Z</time>
      </trkpt>
      <trkpt lat="46.0493" lon="1.28115">
        <ele>368</ele>
        <time>2022-06-21T08:29:48Z</time>
      </trkpt>
      <trkpt lat="46.04946" lon="1.28145">
        <ele>369</ele>
        <time>2022-06-21T08:30:09Z</time>
      </trkpt>
      <trkpt lat="46.04974" lon="1.28169">
        <ele>370</ele>
        <time>2022-06-21T08:30:35Z</time>
      </trkpt>
      <trkpt lat="46.0501" lon="1.28201">
        <ele>369</ele>
        <time>2022-06-21T08:31:09Z</time>
      </trkpt>
      <trkpt lat="46.05025" lon="1.28227">
        <ele>367</ele>
        <time>2022-06-21T08:31:27Z</time>
      </trkpt>
      <trkpt lat="46.05036" lon="1.28263">
        <ele>365</ele>
        <time>2022-06-21T08:31:49Z</time>
      </trkpt>
      <trkpt lat="46.05032" lon="1.28281">
        <ele>364</ele>
        <time>2022-06-21T08:32:00Z</time>
      </trkpt>
      <trkpt lat="46.05061" lon="1.28327">
        <ele>363</ele>
        <time>2022-06-21T08:32:34Z</time>
      </trkpt>
      <trkpt lat="46.05111" lon="1.28386">
        <ele>363</ele>
        <time>2022-06-21T08:33:26Z</time>
      </trkpt>
      <trkpt lat="46.05119" lon="1.28444">
        <ele>364</ele>
        <time>2022-06-21T08:33:59Z</time>
      </trkpt>
      <trkpt lat="46.05097" lon="1.28479">
        <ele>365</ele>
        <time>2022-06-21T08:34:25Z</time>
      </trkpt>
      <trkpt lat="46.05108" lon="1.28556">
        <ele>366</ele>
        <time>2022-06-21T08:35:09Z</time>
      </trkpt>
      <trkpt lat="46.05091" lon="1.28607">
        <ele>366</ele>
        <time>2022-06-21T08:35:40Z</time>
      </trkpt>
      <trkpt lat="46.05071" lon="1.28659">
        <ele>367</ele>
        <time>2022-06-21T08:36:13Z</time>
      </trkpt>
      <trkpt lat="46.05056" lon="1.28721">
        <ele>367</ele>
        <time>2022-06-21T08:36:50Z</time>
      </trkpt>
      <trkpt lat="46.0505" lon="1.2878">
        <ele>366</ele>
        <time>2022-06-21T08:37:23Z</time>
      </trkpt>
      <trkpt lat="46.05035" lon="1.28777">
        <ele>366</ele>
        <time>2022-06-21T08:37:35Z</time>
      </trkpt>
      <trkpt lat="46.04995" lon="1.28725">
        <ele>366</ele>
        <time>2022-06-21T08:38:18Z</time>
      </trkpt>
      <trkpt lat="46.04964" lon="1.28666">
        <ele>364</ele>
        <time>2022-06-21T08:38:59Z</time>
      </trkpt>
      <trkpt lat="46.04935" lon="1.28673">
        <ele>364</ele>
        <time>2022-06-21T08:39:23Z</time>
      </trkpt>
      <trkpt lat="46.04917" lon="1.28694">
        <ele>366</ele>
        <time>2022-06-21T08:39:41Z</time>
      </trkpt>
      <trkpt lat="46.04904" lon="1.28761">
        <ele>371</ele>
        <time>2022-06-21T08:40:20Z</time>
      </trkpt>
      <trkpt lat="46.04875" lon="1.28767">
        <ele>375</ele>
        <time>2022-06-21T08:40:43Z</time>
      </trkpt>
      <trkpt lat="46.04845" lon="1.28739">
        <ele>377</ele>
        <time>2022-06-21T08:41:12Z</time>
      </trkpt>
      <trkpt lat="46.04823" lon="1.28701">
        <ele>380</ele>
        <time>2022-06-21T08:41:40Z</time>
      </trkpt>
      <trkpt lat="46.04817" lon="1.28659">
        <ele>379</ele>
        <time>2022-06-21T08:42:03Z</time>
      </trkpt>
      <trkpt lat="46.04825" lon="1.28611">
        <ele>376</ele>
        <time>2022-06-21T08:42:31Z</time>
      </trkpt>
      <trkpt lat="46.04828" lon="1.28582">
        <ele>375</ele>
        <time>2022-06-21T08:42:47Z</time>
      </trkpt>
      <trkpt lat="46.04821" lon="1.28557">
        <ele>374</ele>
        <time>2022-06-21T08:43:02Z</time>
      </trkpt>
      <trkpt lat="46.048" lon="1.28544">
        <ele>373</ele>
        <time>2022-06-21T08:43:20Z</time>
      </trkpt>
      <trkpt lat="46.04759" lon="1.28533">
        <ele>373</ele>
        <time>2022-06-21T08:43:54Z</time>
      </trkpt>
      <trkpt lat="46.04718" lon="1.28553">
        <ele>374</ele>
        <time>2022-06-21T08:44:28Z</time>
      </trkpt>
      <trkpt lat="46.04675" lon="1.28591">
        <ele>376</ele>
        <time>2022-06-21T08:45:09Z</time>
      </trkpt>
      <trkpt lat="46.04641" lon="1.28637">
        <ele>379</ele>
        <time>2022-06-21T08:45:46Z</time>
      </trkpt>
      <trkpt lat="46.04618" lon="1.2868">
        <ele>382</ele>
        <time>2022-06-21T08:46:16Z</time>
      </trkpt>
      <trkpt lat="46.04599" lon="1.28722">
        <ele>384</ele>
        <time>2022-06-21T08:46:44Z</time>
      </trkpt>
      <trkpt lat="46.04579" lon="1.28746">
        <ele>383</ele>
        <time>2022-06-21T08:47:05Z</time>
      </trkpt>
      <trkpt lat="46.04576" lon="1.28776">
        <ele>385</ele>
        <time>2022-06-21T08:47:22Z</time>
      </trkpt>
      <trkpt lat="46.04563" lon="1.28806">
        <ele>386</ele>
        <time>2022-06-21T08:47:42Z</time>
      </trkpt>
      <trkpt lat="46.04548" lon="1.28849">
        <ele>386</ele>
        <time>2022-06-21T08:48:08Z</time>
      </trkpt>
      <trkpt lat="46.0454" lon="1.28905">
        <ele>387</ele>
        <time>2022-06-21T08:48:40Z</time>
      </trkpt>
      <trkpt lat="46.04533" lon="1.28927">
        <ele>388</ele>
        <time>2022-06-21T08:48:54Z</time>
      </trkpt>
      <trkpt lat="46.04516" lon="1.28946">
        <ele>388</ele>
        <time>2022-06-21T08:49:11Z</time>
      </trkpt>
      <trkpt lat="46.04512" lon="1.28973">
        <ele>390</ele>
        <time>2022-06-21T08:49:26Z</time>
      </trkpt>
      <trkpt lat="46.04519" lon="1.29002">
        <ele>393</ele>
        <time>2022-06-21T08:49:43Z</time>
      </trkpt>
      <trkpt lat="46.04538" lon="1.29067">
        <ele>398</ele>
        <time>2022-06-21T08:50:22Z</time>
      </trkpt>
      <trkpt lat="46.04552" lon="1.29127">
        <ele>397</ele>
        <time>2022-06-21T08:50:58Z</time>
      </trkpt>
      <trkpt lat="46.04553" lon="1.29201">
        <ele>394</ele>
        <time>2022-06-21T08:51:39Z</time>
      </trkpt>
      <trkpt lat="46.04545" lon="1.29273">
        <ele>390</ele>
        <time>2022-06-21T08:52:19Z</time>
      </trkpt>
      <trkpt lat="46.04556" lon="1.29286">
        <ele>390</ele>
        <time>2022-06-21T08:52:31Z</time>
      </trkpt>
      <trkpt lat="46.04542" lon="1.29346">
        <ele>389</ele>
        <time>2022-06-21T08:53:06Z</time>
      </trkpt>
      <trkpt lat="46.0454" lon="1.29384">
        <ele>387</ele>
        <time>2022-06-21T08:53:27Z</time>
      </trkpt>
      <trkpt lat="46.04553" lon="1.29425">
        <ele>386</ele>
        <time>2022-06-21T08:53:52Z</time>
      </trkpt>
      <trkpt lat="46.04551" lon="1.29463">
        <ele>385</ele>
        <time>2022-06-21T08:54:13Z</time>
      </trkpt>
      <trkpt lat="46.04543" lon="1.29497">
        <ele>383</ele>
        <time>2022-06-21T08:54:33Z</time>
      </trkpt>
      <trkpt lat="46.04528" lon="1.29564">
        <ele>382</ele>
        <time>2022-06-21T08:55:12Z</time>
      </trkpt>
      <trkpt lat="46.04526" lon="1.2959">
        <ele>382</ele>
        <time>2022-06-21T08:55:27Z</time>
      </trkpt>
      <trkpt lat="46.04507" lon="1.29629">
        <ele>382</ele>
        <time>2022-06-21T08:55:53Z</time>
      </trkpt>
      <trkpt lat="46.04471" lon="1.2969">
        <ele>381</ele>
        <time>2022-06-21T08:56:38Z</time>
      </trkpt>
      <trkpt lat="46.0444" lon="1.29756">
        <ele>379</ele>
        <time>2022-06-21T08:57:22Z</time>
      </trkpt>
      <trkpt lat="46.04433" lon="1.29846">
        <ele>377</ele>
        <time>2022-06-21T08:58:12Z</time>
      </trkpt>
      <trkpt lat="46.04437" lon="1.29955">
        <ele>371</ele>
        <time>2022-06-21T08:59:13Z</time>
      </trkpt>
      <trkpt lat="46.04449" lon="1.30051">
        <ele>366</ele>
        <time>2022-06-21T09:00:07Z</time>
      </trkpt>
      <trkpt lat="46.04464" lon="1.30158">
        <ele>367</ele>
        <time>2022-06-21T09:01:08Z</time>
      </trkpt>
      <trkpt lat="46.04476" lon="1.30266">
        <ele>370</ele>
        <time>2022-06-21T09:02:09Z</time>
      </trkpt>
      <trkpt lat="46.04483" lon="1.30374">
        <ele>371</ele>
        <time>2022-06-21T09:03:09Z</time>
      </trkpt>
      <trkpt lat="46.04485" lon="1.30418">
        <ele>372</ele>
        <time>2022-06-21T09:03:34Z</time>
      </trkpt>
      <trkpt lat="46.04449" lon="1.30507">
        <ele>372</ele>
        <time>2022-06-21T09:04:31Z</time>
      </trkpt>
      <trkpt lat="46.04452" lon="1.30574">
        <ele>372</ele>
        <time>2022-06-21T09:05:08Z</time>
      </trkpt>
      <trkpt lat="46.0448" lon="1.30642">
        <ele>370</ele>
        <time>2022-06-21T09:05:52Z</time>
      </trkpt>
      <trkpt lat="46.04478" lon="1.30704">
        <ele>367</ele>
        <time>2022-06-21T09:06:27Z</time>
      </trkpt>
      <trkpt lat="46.04506" lon="1.30732">
        <ele>367</ele>
        <time>2022-06-21T09:06:54Z</time>
      </trkpt>
      <trkpt lat="46.04484" lon="1.30758">
        <ele>365</ele>
        <time>2022-06-21T09:07:17Z</time>
      </trkpt>
      <trkpt lat="46.04475" lon="1.30785">
        <ele>365</ele>
        <time>2022-06-21T09:07:33Z</time>
      </trkpt>
      <trkpt lat="46.04493" lon="1.3083">
        <ele>366</ele>
        <time>2022-06-21T09:08:02Z</time>
      </trkpt>
      <trkpt lat="46.04528" lon="1.30867">
        <ele>366</ele>
        <time>2022-06-21T09:08:37Z</time>
      </trkpt>
      <trkpt lat="46.0456" lon="1.30894">
        <ele>367</ele>
        <time>2022-06-21T09:09:07Z</time>
      </trkpt>
      <trkpt lat="46.0461" lon="1.30905">
        <ele>368</ele>
        <time>2022-06-21T09:09:47Z</time>
      </trkpt>
      <trkpt lat="46.04693" lon="1.3092">
        <ele>370</ele>
        <time>2022-06-21T09:10:54Z</time>
      </trkpt>
      <trkpt lat="46.04741" lon="1.30909">
        <ele>370</ele>
        <time>2022-06-21T09:11:33Z</time>
      </trkpt>
      <trkpt lat="46.04811" lon="1.30896">
        <ele>366</ele>
        <time>2022-06-21T09:12:29Z</time>
      </trkpt>
      <trkpt lat="46.04829" lon="1.30878">
        <ele>366</ele>
        <time>2022-06-21T09:12:47Z</time>
      </trkpt>
      <trkpt lat="46.04845" lon="1.30849">
        <ele>367</ele>
        <time>2022-06-21T09:13:08Z</time>
      </trkpt>
      <trkpt lat="46.04864" lon="1.30783">
        <ele>367</ele>
        <time>2022-06-21T09:13:47Z</time>
      </trkpt>
      <trkpt lat="46.04904" lon="1.30735">
        <ele>368</ele>
        <time>2022-06-21T09:14:29Z</time>
      </trkpt>
      <trkpt lat="46.04944" lon="1.30703">
        <ele>370</ele>
        <time>2022-06-21T09:15:06Z</time>
      </trkpt>
      <trkpt lat="46.04951" lon="1.30689">
        <ele>371</ele>
        <time>2022-06-21T09:15:15Z</time>
      </trkpt>
      <trkpt lat="46.04962" lon="1.3068">
        <ele>372</ele>
        <time>2022-06-21T09:15:25Z</time>
      </trkpt>
      <trkpt lat="46.04971" lon="1.30725">
        <ele>371</ele>
        <time>2022-06-21T09:15:51Z</time>
      </trkpt>
      <trkpt lat="46.0498" lon="1.3075">
        <ele>372</ele>
        <time>2022-06-21T09:16:07Z</time>
      </trkpt>
      <trkpt lat="46.04981" lon="1.3077">
        <ele>371</ele>
        <time>2022-06-21T09:16:18Z</time>
      </trkpt>
      <trkpt lat="46.04973" lon="1.30819">
        <ele>368</ele>
        <time>2022-06-21T09:16:46Z</time>
      </trkpt>
      <trkpt lat="46.04967" lon="1.30838">
        <ele>367</ele>
        <time>2022-06-21T09:16:58Z</time>
      </trkpt>
      <trkpt lat="46.04991" lon="1.30851">
        <ele>366</ele>
        <time>2022-06-21T09:17:18Z</time>
      </trkpt>
      <trkpt lat="46.05027" lon="1.30827">
        <ele>367</ele>
        <time>2022-06-21T09:17:50Z</time>
      </trkpt>
      <trkpt lat="46.05054" lon="1.30829">
        <ele>365</ele>
        <time>2022-06-21T09:18:12Z</time>
      </trkpt>
      <trkpt lat="46.05069" lon="1.3084">
        <ele>363</ele>
        <time>2022-06-21T09:18:25Z</time>
      </trkpt>
      <trkpt lat="46.05077" lon="1.30866">
        <ele>362</ele>
        <time>2022-06-21T09:18:41Z</time>
      </trkpt>
      <trkpt lat="46.05076" lon="1.30903">
        <ele>362</ele>
        <time>2022-06-21T09:19:01Z</time>
      </trkpt>
      <trkpt lat="46.05064" lon="1.3093">
        <ele>362</ele>
        <time>2022-06-21T09:19:19Z</time>
      </trkpt>
      <trkpt lat="46.05045" lon="1.30995">
        <ele>364</ele>
        <time>2022-06-21T09:19:59Z</time>
      </trkpt>
      <trkpt lat="46.05027" lon="1.31061">
        <ele>363</ele>
        <time>2022-06-21T09:20:38Z</time>
      </trkpt>
      <trkpt lat="46.05023" lon="1.31098">
        <ele>363</ele>
        <time>2022-06-21T09:20:59Z</time>
      </trkpt>
      <trkpt lat="46.05053" lon="1.31124">
        <ele>365</ele>
        <time>2022-06-21T09:21:27Z</time>
      </trkpt>
      <trkpt lat="46.05084" lon="1.31108">
        <ele>367</ele>
        <time>2022-06-21T09:21:53Z</time>
      </trkpt>
      <trkpt lat="46.05097" lon="1.31113">
        <ele>368</ele>
        <time>2022-06-21T09:22:04Z</time>
      </trkpt>
      <trkpt lat="46.0511" lon="1.31169">
        <ele>370</ele>
        <time>2022-06-21T09:22:37Z</time>
      </trkpt>
      <trkpt lat="46.05099" lon="1.31204">
        <ele>372</ele>
        <time>2022-06-21T09:22:58Z</time>
      </trkpt>
      <trkpt lat="46.05087" lon="1.31272">
        <ele>374</ele>
        <time>2022-06-21T09:23:37Z</time>
      </trkpt>
      <trkpt lat="46.05064" lon="1.31342">
        <ele>373</ele>
        <time>2022-06-21T09:24:20Z</time>
      </trkpt>
      <trkpt lat="46.05041" lon="1.31402">
        <ele>370</ele>
        <time>2022-06-21T09:24:58Z</time>
      </trkpt>
      <trkpt lat="46.05001" lon="1.31448">
        <ele>364</ele>
        <time>2022-06-21T09:25:39Z</time>
      </trkpt>
      <trkpt lat="46.05004" lon="1.31496">
        <ele>364</ele>
        <time>2022-06-21T09:26:06Z</time>
      </trkpt>
      <trkpt lat="46.05019" lon="1.3156">
        <ele>368</ele>
        <time>2022-06-21T09:26:43Z</time>
      </trkpt>
      <trkpt lat="46.05002" lon="1.31588">
        <ele>369</ele>
        <time>2022-06-21T09:27:04Z</time>
      </trkpt>
      <trkpt lat="46.04985" lon="1.31617">
        <ele>372</ele>
        <time>2022-06-21T09:27:25Z</time>
      </trkpt>
      <trkpt lat="46.04971" lon="1.31618">
        <ele>372</ele>
        <time>2022-06-21T09:27:36Z</time>
      </trkpt>
      <trkpt lat="46.04934" lon="1.3157">
        <ele>371</ele>
        <time>2022-06-21T09:28:16Z</time>
      </trkpt>
      <trkpt lat="46.04878" lon="1.31554">
        <ele>371</ele>
        <time>2022-06-21T09:29:02Z</time>
      </trkpt>
      <trkpt lat="46.0483" lon="1.31537">
        <ele>373</ele>
        <time>2022-06-21T09:29:42Z</time>
      </trkpt>
      <trkpt lat="46.04814" lon="1.31522">
        <ele>375</ele>
        <time>2022-06-21T09:29:57Z</time>
      </trkpt>
      <trkpt lat="46.04822" lon="1.31488">
        <ele>375</ele>
        <time>2022-06-21T09:30:17Z</time>
      </trkpt>
      <trkpt lat="46.04831" lon="1.31453">
        <ele>375</ele>
        <time>2022-06-21T09:30:38Z</time>
      </trkpt>
      <trkpt lat="46.04851" lon="1.3143">
        <ele>373</ele>
        <time>2022-06-21T09:30:58Z</time>
      </trkpt>
      <trkpt lat="46.04856" lon="1.31408">
        <ele>372</ele>
        <time>2022-06-21T09:31:11Z</time>
      </trkpt>
      <trkpt lat="46.04849" lon="1.31385">
        <ele>372</ele>
        <time>2022-06-21T09:31:25Z</time>
      </trkpt>
      <trkpt lat="46.0483" lon="1.31364">
        <ele>374</ele>
        <time>2022-06-21T09:31:44Z</time>
      </trkpt>
      <trkpt lat="46.04834" lon="1.31336">
        <ele>372</ele>
        <time>2022-06-21T09:32:00Z</time>
      </trkpt>
      <trkpt lat="46.04828" lon="1.31303">
        <ele>371</ele>
        <time>2022-06-21T09:32:19Z</time>
      </trkpt>
      <trkpt lat="46.04803" lon="1.31289">
        <ele>374</ele>
        <time>2022-06-21T09:32:40Z</time>
      </trkpt>
      <trkpt lat="46.04805" lon="1.31247">
        <ele>371</ele>
        <time>2022-06-21T09:33:04Z</time>
      </trkpt>
      <trkpt lat="46.04785" lon="1.31217">
        <ele>373</ele>
        <time>2022-06-21T09:33:27Z</time>
      </trkpt>
      <trkpt lat="46.04747" lon="1.31176">
        <ele>376</ele>
        <time>2022-06-21T09:34:05Z</time>
      </trkpt>
      <trkpt lat="46.04711" lon="1.3113">
        <ele>373</ele>
        <time>2022-06-21T09:34:43Z</time>
      </trkpt>
      <trkpt lat="46.04664" lon="1.31093">
        <ele>370</ele>
        <time>2022-06-21T09:35:26Z</time>
      </trkpt>
      <trkpt lat="46.04608" lon="1.31065">
        <ele>370</ele>
        <time>2022-06-21T09:36:14Z</time>
      </trkpt>
      <trkpt lat="46.04552" lon="1.31037">
        <ele>370</ele>
        <time>2022-06-21T09:37:01Z</time>
      </trkpt>
      <trkpt lat="46.04507" lon="1.31032">
        <ele>372</ele>
        <time>2022-06-21T09:37:37Z</time>
      </trkpt>
      <trkpt lat="46.04467" lon="1.31034">
        <ele>375</ele>
        <time>2022-06-21T09:38:09Z</time>
      </trkpt>
      <trkpt lat="46.04445" lon="1.31032">
        <ele>376</ele>
        <time>2022-06-21T09:38:27Z</time>
      </trkpt>
      <trkpt lat="46.04436" lon="1.31015">
        <ele>375</ele>
        <time>2022-06-21T09:38:39Z</time>
      </trkpt>
      <trkpt lat="46.04404" lon="1.30955">
        <ele>374</ele>
        <time>2022-06-21T09:39:21Z</time>
      </trkpt>
      <trkpt lat="46.04369" lon="1.30887">
        <ele>374</ele>
        <time>2022-06-21T09:40:08Z</time>
      </trkpt>
      <trkpt lat="46.04334" lon="1.30818">
        <ele>371</ele>
        <time>2022-06-21T09:40:56Z</time>
      </trkpt>
      <trkpt lat="46.04303" lon="1.30794">
        <ele>377</ele>
        <time>2022-06-21T09:41:24Z</time>
      </trkpt>
      <trkpt lat="46.04249" lon="1.30725">
        <ele>378</ele>
        <time>2022-06-21T09:42:22Z</time>
      </trkpt>
      <trkpt lat="46.04194" lon="1.30655">
        <ele>375</ele>
        <time>2022-06-21T09:43:20Z</time>
      </trkpt>
      <trkpt lat="46.04138" lon="1.30586">
        <ele>372</ele>
        <time>2022-06-21T09:44:19Z</time>
      </trkpt>
      <trkpt lat="46.04085" lon="1.30535">
        <ele>370</ele>
        <time>2022-06-21T09:45:10Z</time>
      </trkpt>
      <trkpt lat="46.04042" lon="1.30523">
        <ele>373</ele>
        <time>2022-06-21T09:45:45Z</time>
      </trkpt>
      <trkpt lat="46.04005" lon="1.30497">
        <ele>375</ele>
        <time>2022-06-21T09:46:18Z</time>
      </trkpt>
      <trkpt lat="46.03953" lon="1.30438">
        <ele>377</ele>
        <time>2022-06-21T09:47:11Z</time>
      </trkpt>
      <trkpt lat="46.03916" lon="1.30393">
        <ele>376</ele>
        <time>2022-06-21T09:47:50Z</time>
      </trkpt>
      <trkpt lat="46.03841" lon="1.30372">
        <ele>378</ele>
        <time>2022-06-21T09:48:51Z</time>
      </trkpt>
      <trkpt lat="46.0382" lon="1.30369">
        <ele>379</ele>
        <time>2022-06-21T09:49:08Z</time>
      </trkpt>
      <trkpt lat="46.03747" lon="1.30385">
        <ele>383</ele>
        <time>2022-06-21T09:50:07Z</time>
      </trkpt>
      <trkpt lat="46.03719" lon="1.30378">
        <ele>387</ele>
        <time>2022-06-21T09:50:30Z</time>
      </trkpt>
      <trkpt lat="46.03693" lon="1.30352">
        <ele>389</ele>
        <time>2022-06-21T09:50:55Z</time>
      </trkpt>
      <trkpt lat="46.03677" lon="1.30334">
        <ele>389</ele>
        <time>2022-06-21T09:51:12Z</time>
      </trkpt>
      <trkpt lat="46.0366" lon="1.30317">
        <ele>389</ele>
        <time>2022-06-21T09:51:28Z</time>
      </trkpt>
      <trkpt lat="46.03644" lon="1.303">
        <ele>387</ele>
        <time>2022-06-21T09:51:44Z</time>
      </trkpt>
      <trkpt lat="46.03629" lon="1.3035">
        <ele>393</ele>
        <time>2022-06-21T09:52:14Z</time>
      </trkpt>
      <trkpt lat="46.03587" lon="1.30425">
        <ele>404</ele>
        <time>2022-06-21T09:53:08Z</time>
      </trkpt>
      <trkpt lat="46.03547" lon="1.3047">
        <ele>408</ele>
        <time>2022-06-21T09:53:49Z</time>
      </trkpt>
      <trkpt lat="46.03511" lon="1.30522">
        <ele>412</ele>
        <time>2022-06-21T09:54:29Z</time>
      </trkpt>
      <trkpt lat="46.03509" lon="1.30545">
        <ele>415</ele>
        <time>2022-06-21T09:54:42Z</time>
      </trkpt>
      <trkpt lat="46.03493" lon="1.30551">
        <ele>414</ele>
        <time>2022-06-21T09:54:56Z</time>
      </trkpt>
      <trkpt lat="46.03471" lon="1.30549">
        <ele>411</ele>
        <time>2022-06-21T09:55:13Z</time>
      </trkpt>
      <trkpt lat="46.03455" lon="1.30565">
        <ele>410</ele>
        <time>2022-06-21T09:55:29Z</time>
      </trkpt>
      <trkpt lat="46.03451" lon="1.30498">
        <ele>403</ele>
        <time>2022-06-21T09:56:06Z</time>
      </trkpt>
      <trkpt lat="46.03448" lon="1.30429">
        <ele>395</ele>
        <time>2022-06-21T09:56:45Z</time>
      </trkpt>
      <trkpt lat="46.03437" lon="1.30356">
        <ele>389</ele>
        <time>2022-06-21T09:57:26Z</time>
      </trkpt>
      <trkpt lat="46.03435" lon="1.30286">
        <ele>386</ele>
        <time>2022-06-21T09:58:05Z</time>
      </trkpt>
      <trkpt lat="46.0344" lon="1.30194">
        <ele>381</ele>
        <time>2022-06-21T09:58:56Z</time>
      </trkpt>
    </trkseg>
  </trk>
</gpx>